Terminal Aerodrome Forecast
Issued by NWS

Home | Current Version | Previous Version | Text Only | Print | Product List | Glossary On
Versions: 1 2 3 4 5 6 7 8 9 10
241
FTUS43 KIND 252329
TAFLAF
TAF
KLAF 252329Z 2600/2624 16009KT P6SM FEW250
     FM261700 19015G23KT P6SM BKN045
     FM261900 19016G24KT P6SM BKN030
     FM262000 19016G24KT P6SM BKN035
      AMD LTD TO CLD VIS AND WIND 2601/2613=

USA.gov is the U.S. government's official web portal to all federal, state and local government web resources and services.